sensor_id;sensor_type;location;lat;lon;timestamp;P1;durP1;ratioP1;P2;durP2;ratioP2
3311;SDS011;1668;49.648;8.570;2023-07-20T00:00:08;3.40;;;2.10;;
3311;SDS011;1668;49.648;8.570;2023-07-20T00:02:38;4.07;;;1.77;;
3311;SDS011;1668;49.648;8.570;2023-07-20T00:05:06;6.73;;;2.20;;
3311;SDS011;1668;49.648;8.570;2023-07-20T00:07:32;4.50;;;2.30;;
3311;SDS011;1668;49.648;8.570;2023-07-20T00:09:59;2.80;;;2.00;;
3311;SDS011;1668;49.648;8.570;2023-07-20T00:12:26;3.33;;;2.23;;
3311;SDS011;1668;49.648;8.570;2023-07-20T00:14:53;3.50;;;2.13;;
3311;SDS011;1668;49.648;8.570;2023-07-20T00:17:21;3.83;;;2.00;;
3311;SDS011;1668;49.648;8.570;2023-07-20T00:19:48;3.40;;;2.30;;
3311;SDS011;1668;49.648;8.570;2023-07-20T00:22:15;5.20;;;2.40;;
3311;SDS011;1668;49.648;8.570;2023-07-20T00:24:42;5.23;;;2.13;;
3311;SDS011;1668;49.648;8.570;2023-07-20T00:27:09;4.23;;;2.30;;
3311;SDS011;1668;49.648;8.570;2023-07-20T00:29:35;19.03;;;2.93;;
3311;SDS011;1668;49.648;8.570;2023-07-20T00:32:02;16.43;;;2.77;;
3311;SDS011;1668;49.648;8.570;2023-07-20T00:34:32;3.30;;;2.00;;
3311;SDS011;1668;49.648;8.570;2023-07-20T00:36:59;3.90;;;2.50;;
3311;SDS011;1668;49.648;8.570;2023-07-20T00:39:26;5.00;;;2.20;;
3311;SDS011;1668;49.648;8.570;2023-07-20T00:41:53;6.87;;;2.83;;
3311;SDS011;1668;49.648;8.570;2023-07-20T00:44:20;6.30;;;2.07;;
3311;SDS011;1668;49.648;8.570;2023-07-20T00:46:46;6.33;;;2.60;;
3311;SDS011;1668;49.648;8.570;2023-07-20T00:49:14;3.87;;;2.00;;
3311;SDS011;1668;49.648;8.570;2023-07-20T00:51:43;7.00;;;2.20;;
3311;SDS011;1668;49.648;8.570;2023-07-20T00:54:10;3.00;;;2.07;;
3311;SDS011;1668;49.648;8.570;2023-07-20T00:56:37;6.27;;;2.30;;
3311;SDS011;1668;49.648;8.570;2023-07-20T00:59:05;4.33;;;2.17;;
3311;SDS011;1668;49.648;8.570;2023-07-20T01:01:32;3.80;;;2.20;;
3311;SDS011;1668;49.648;8.570;2023-07-20T01:03:59;4.50;;;2.10;;
3311;SDS011;1668;49.648;8.570;2023-07-20T01:06:41;4.33;;;2.10;;
3311;SDS011;1668;49.648;8.570;2023-07-20T01:09:16;3.87;;;2.17;;
3311;SDS011;1668;49.648;8.570;2023-07-20T01:11:48;4.70;;;2.40;;
3311;SDS011;1668;49.648;8.570;2023-07-20T01:14:20;4.53;;;2.10;;
3311;SDS011;1668;49.648;8.570;2023-07-20T01:16:50;3.73;;;2.10;;
3311;SDS011;1668;49.648;8.570;2023-07-20T01:19:17;4.93;;;2.30;;
3311;SDS011;1668;49.648;8.570;2023-07-20T01:21:45;5.10;;;2.20;;
3311;SDS011;1668;49.648;8.570;2023-07-20T01:24:30;4.43;;;2.10;;
3311;SDS011;1668;49.648;8.570;2023-07-20T01:27:20;4.47;;;2.13;;
3311;SDS011;1668;49.648;8.570;2023-07-20T01:30:08;7.23;;;2.10;;
3311;SDS011;1668;49.648;8.570;2023-07-20T01:32:53;2.90;;;1.80;;
3311;SDS011;1668;49.648;8.570;2023-07-20T01:35:23;6.60;;;2.30;;
3311;SDS011;1668;49.648;8.570;2023-07-20T01:37:53;9.97;;;2.17;;
3311;SDS011;1668;49.648;8.570;2023-07-20T01:40:21;4.00;;;2.43;;
3311;SDS011;1668;49.648;8.570;2023-07-20T01:42:50;4.53;;;2.00;;
3311;SDS011;1668;49.648;8.570;2023-07-20T01:45:18;4.50;;;1.97;;
3311;SDS011;1668;49.648;8.570;2023-07-20T01:47:45;5.57;;;2.10;;
3311;SDS011;1668;49.648;8.570;2023-07-20T01:50:13;7.40;;;2.40;;
3311;SDS011;1668;49.648;8.570;2023-07-20T01:52:40;3.40;;;1.83;;
3311;SDS011;1668;49.648;8.570;2023-07-20T01:55:07;5.20;;;2.20;;
3311;SDS011;1668;49.648;8.570;2023-07-20T01:57:35;5.40;;;1.93;;
3311;SDS011;1668;49.648;8.570;2023-07-20T02:00:03;3.67;;;1.73;;
3311;SDS011;1668;49.648;8.570;2023-07-20T02:02:30;6.17;;;2.20;;
3311;SDS011;1668;49.648;8.570;2023-07-20T02:04:57;5.10;;;2.23;;
3311;SDS011;1668;49.648;8.570;2023-07-20T02:07:26;5.97;;;1.90;;
3311;SDS011;1668;49.648;8.570;2023-07-20T02:09:52;3.53;;;1.80;;
3311;SDS011;1668;49.648;8.570;2023-07-20T02:12:19;4.47;;;2.50;;
3311;SDS011;1668;49.648;8.570;2023-07-20T02:14:46;4.30;;;2.33;;
3311;SDS011;1668;49.648;8.570;2023-07-20T02:17:15;5.80;;;2.33;;
3311;SDS011;1668;49.648;8.570;2023-07-20T02:19:42;5.23;;;2.53;;
3311;SDS011;1668;49.648;8.570;2023-07-20T02:22:09;4.40;;;2.30;;
3311;SDS011;1668;49.648;8.570;2023-07-20T02:24:37;3.80;;;2.50;;
3311;SDS011;1668;49.648;8.570;2023-07-20T02:27:04;5.47;;;2.30;;
3311;SDS011;1668;49.648;8.570;2023-07-20T02:29:32;5.80;;;2.50;;
3311;SDS011;1668;49.648;8.570;2023-07-20T02:31:59;5.30;;;2.23;;
3311;SDS011;1668;49.648;8.570;2023-07-20T02:34:25;3.77;;;2.43;;
3311;SDS011;1668;49.648;8.570;2023-07-20T02:36:52;9.47;;;2.50;;
3311;SDS011;1668;49.648;8.570;2023-07-20T02:39:21;4.43;;;2.30;;
3311;SDS011;1668;49.648;8.570;2023-07-20T02:41:49;6.67;;;2.40;;
3311;SDS011;1668;49.648;8.570;2023-07-20T02:44:16;4.77;;;2.50;;
3311;SDS011;1668;49.648;8.570;2023-07-20T02:46:43;6.57;;;2.40;;
3311;SDS011;1668;49.648;8.570;2023-07-20T02:49:09;5.67;;;2.53;;
3311;SDS011;1668;49.648;8.570;2023-07-20T02:51:36;3.53;;;2.30;;
3311;SDS011;1668;49.648;8.570;2023-07-20T02:54:03;4.20;;;2.17;;
3311;SDS011;1668;49.648;8.570;2023-07-20T02:56:30;3.87;;;2.50;;
3311;SDS011;1668;49.648;8.570;2023-07-20T02:58:58;7.50;;;2.40;;
3311;SDS011;1668;49.648;8.570;2023-07-20T03:01:27;3.80;;;2.70;;
3311;SDS011;1668;49.648;8.570;2023-07-20T03:03:55;2.77;;;2.00;;
3311;SDS011;1668;49.648;8.570;2023-07-20T03:06:22;4.17;;;2.27;;
3311;SDS011;1668;49.648;8.570;2023-07-20T03:08:49;5.40;;;2.40;;
3311;SDS011;1668;49.648;8.570;2023-07-20T03:11:18;5.07;;;2.43;;
3311;SDS011;1668;49.648;8.570;2023-07-20T03:13:46;3.53;;;2.13;;
3311;SDS011;1668;49.648;8.570;2023-07-20T03:16:17;4.53;;;2.73;;
3311;SDS011;1668;49.648;8.570;2023-07-20T03:18:44;4.60;;;2.33;;
3311;SDS011;1668;49.648;8.570;2023-07-20T03:21:12;2.90;;;2.37;;
3311;SDS011;1668;49.648;8.570;2023-07-20T03:23:39;5.50;;;2.57;;
3311;SDS011;1668;49.648;8.570;2023-07-20T03:26:06;4.53;;;2.60;;
3311;SDS011;1668;49.648;8.570;2023-07-20T03:28:33;4.93;;;2.50;;
3311;SDS011;1668;49.648;8.570;2023-07-20T03:31:00;4.30;;;2.40;;
3311;SDS011;1668;49.648;8.570;2023-07-20T03:33:29;4.73;;;2.87;;
3311;SDS011;1668;49.648;8.570;2023-07-20T03:35:56;3.27;;;2.63;;
3311;SDS011;1668;49.648;8.570;2023-07-20T03:38:24;4.10;;;2.37;;
3311;SDS011;1668;49.648;8.570;2023-07-20T03:40:52;7.10;;;3.27;;
3311;SDS011;1668;49.648;8.570;2023-07-20T03:43:20;6.97;;;2.37;;
3311;SDS011;1668;49.648;8.570;2023-07-20T03:45:46;4.50;;;2.97;;
3311;SDS011;1668;49.648;8.570;2023-07-20T03:48:14;4.00;;;2.33;;
3311;SDS011;1668;49.648;8.570;2023-07-20T03:50:43;5.23;;;3.13;;
3311;SDS011;1668;49.648;8.570;2023-07-20T03:53:10;8.23;;;3.10;;
3311;SDS011;1668;49.648;8.570;2023-07-20T03:55:37;5.40;;;2.80;;
3311;SDS011;1668;49.648;8.570;2023-07-20T03:58:05;5.37;;;2.73;;
3311;SDS011;1668;49.648;8.570;2023-07-20T04:00:32;4.43;;;2.67;;
3311;SDS011;1668;49.648;8.570;2023-07-20T04:02:59;4.70;;;2.90;;
3311;SDS011;1668;49.648;8.570;2023-07-20T04:05:26;4.00;;;2.80;;
3311;SDS011;1668;49.648;8.570;2023-07-20T04:07:55;5.20;;;3.27;;
3311;SDS011;1668;49.648;8.570;2023-07-20T04:10:22;4.70;;;2.47;;
3311;SDS011;1668;49.648;8.570;2023-07-20T04:12:48;4.00;;;2.53;;
3311;SDS011;1668;49.648;8.570;2023-07-20T04:15:15;7.43;;;3.17;;
3311;SDS011;1668;49.648;8.570;2023-07-20T04:17:42;4.33;;;3.17;;
3311;SDS011;1668;49.648;8.570;2023-07-20T04:20:10;7.50;;;3.37;;
3311;SDS011;1668;49.648;8.570;2023-07-20T04:22:38;6.70;;;3.33;;
3311;SDS011;1668;49.648;8.570;2023-07-20T04:25:06;6.93;;;2.90;;
3311;SDS011;1668;49.648;8.570;2023-07-20T04:27:35;5.13;;;3.00;;
3311;SDS011;1668;49.648;8.570;2023-07-20T04:30:02;4.10;;;2.73;;
3311;SDS011;1668;49.648;8.570;2023-07-20T04:32:29;9.53;;;3.37;;
3311;SDS011;1668;49.648;8.570;2023-07-20T04:34:58;4.20;;;3.10;;
3311;SDS011;1668;49.648;8.570;2023-07-20T04:37:25;5.70;;;3.10;;
3311;SDS011;1668;49.648;8.570;2023-07-20T04:39:52;8.63;;;3.07;;
3311;SDS011;1668;49.648;8.570;2023-07-20T04:42:20;4.33;;;2.67;;
3311;SDS011;1668;49.648;8.570;2023-07-20T04:44:47;6.60;;;3.30;;
3311;SDS011;1668;49.648;8.570;2023-07-20T04:47:14;4.50;;;2.70;;
3311;SDS011;1668;49.648;8.570;2023-07-20T04:49:41;5.30;;;3.20;;
3311;SDS011;1668;49.648;8.570;2023-07-20T04:52:08;6.33;;;2.87;;
3311;SDS011;1668;49.648;8.570;2023-07-20T04:54:35;7.13;;;3.13;;
3311;SDS011;1668;49.648;8.570;2023-07-20T04:57:02;6.83;;;3.30;;
3311;SDS011;1668;49.648;8.570;2023-07-20T04:59:30;8.27;;;3.40;;
3311;SDS011;1668;49.648;8.570;2023-07-20T05:01:59;4.93;;;3.17;;
3311;SDS011;1668;49.648;8.570;2023-07-20T05:04:26;8.53;;;3.17;;
3311;SDS011;1668;49.648;8.570;2023-07-20T05:06:53;5.50;;;2.97;;
3311;SDS011;1668;49.648;8.570;2023-07-20T05:09:19;5.17;;;2.93;;
3311;SDS011;1668;49.648;8.570;2023-07-20T05:11:48;10.93;;;2.90;;
3311;SDS011;1668;49.648;8.570;2023-07-20T05:14:14;10.83;;;3.30;;
3311;SDS011;1668;49.648;8.570;2023-07-20T05:16:43;5.10;;;2.90;;
3311;SDS011;1668;49.648;8.570;2023-07-20T05:19:10;4.30;;;2.70;;
3311;SDS011;1668;49.648;8.570;2023-07-20T05:21:36;5.33;;;2.77;;
3311;SDS011;1668;49.648;8.570;2023-07-20T05:24:03;5.33;;;2.80;;
3311;SDS011;1668;49.648;8.570;2023-07-20T05:26:31;4.87;;;2.70;;
3311;SDS011;1668;49.648;8.570;2023-07-20T05:28:58;6.57;;;2.70;;
3311;SDS011;1668;49.648;8.570;2023-07-20T05:31:25;6.53;;;3.10;;
3311;SDS011;1668;49.648;8.570;2023-07-20T05:33:53;8.90;;;3.10;;
3311;SDS011;1668;49.648;8.570;2023-07-20T05:36:20;8.80;;;3.53;;
3311;SDS011;1668;49.648;8.570;2023-07-20T05:38:47;7.23;;;3.40;;
3311;SDS011;1668;49.648;8.570;2023-07-20T05:41:14;10.97;;;3.50;;
3311;SDS011;1668;49.648;8.570;2023-07-20T05:43:41;17.13;;;5.43;;
3311;SDS011;1668;49.648;8.570;2023-07-20T05:46:08;9.23;;;3.70;;
3311;SDS011;1668;49.648;8.570;2023-07-20T05:48:35;7.40;;;3.40;;
3311;SDS011;1668;49.648;8.570;2023-07-20T05:51:03;6.67;;;3.20;;
3311;SDS011;1668;49.648;8.570;2023-07-20T05:53:30;8.43;;;3.33;;
3311;SDS011;1668;49.648;8.570;2023-07-20T05:55:57;11.73;;;3.80;;
3311;SDS011;1668;49.648;8.570;2023-07-20T05:58:24;7.47;;;3.00;;
3311;SDS011;1668;49.648;8.570;2023-07-20T06:00:51;11.63;;;3.50;;
3311;SDS011;1668;49.648;8.570;2023-07-20T06:03:20;11.60;;;3.70;;
3311;SDS011;1668;49.648;8.570;2023-07-20T06:05:47;8.50;;;3.30;;
3311;SDS011;1668;49.648;8.570;2023-07-20T06:08:15;6.00;;;3.40;;
3311;SDS011;1668;49.648;8.570;2023-07-20T06:10:42;6.60;;;3.60;;
3311;SDS011;1668;49.648;8.570;2023-07-20T06:13:09;5.97;;;2.80;;
3311;SDS011;1668;49.648;8.570;2023-07-20T06:15:35;4.17;;;3.10;;
3311;SDS011;1668;49.648;8.570;2023-07-20T06:18:04;8.10;;;2.63;;
3311;SDS011;1668;49.648;8.570;2023-07-20T06:20:31;5.80;;;2.93;;
3311;SDS011;1668;49.648;8.570;2023-07-20T06:22:58;4.77;;;2.40;;
3311;SDS011;1668;49.648;8.570;2023-07-20T06:25:26;4.87;;;2.80;;
3311;SDS011;1668;49.648;8.570;2023-07-20T06:27:54;3.87;;;2.70;;
3311;SDS011;1668;49.648;8.570;2023-07-20T06:30:22;7.03;;;3.30;;
3311;SDS011;1668;49.648;8.570;2023-07-20T06:32:51;5.43;;;2.50;;
3311;SDS011;1668;49.648;8.570;2023-07-20T06:35:18;5.30;;;3.07;;
3311;SDS011;1668;49.648;8.570;2023-07-20T06:37:45;10.03;;;3.30;;
3311;SDS011;1668;49.648;8.570;2023-07-20T06:40:12;6.20;;;3.23;;
3311;SDS011;1668;49.648;8.570;2023-07-20T06:42:40;4.87;;;2.60;;
3311;SDS011;1668;49.648;8.570;2023-07-20T06:45:07;6.07;;;2.80;;
3311;SDS011;1668;49.648;8.570;2023-07-20T06:47:37;4.40;;;2.90;;
3311;SDS011;1668;49.648;8.570;2023-07-20T06:50:05;9.13;;;3.07;;
3311;SDS011;1668;49.648;8.570;2023-07-20T06:52:32;6.23;;;3.00;;
3311;SDS011;1668;49.648;8.570;2023-07-20T06:54:59;5.00;;;2.67;;
3311;SDS011;1668;49.648;8.570;2023-07-20T06:57:26;5.73;;;2.43;;
3311;SDS011;1668;49.648;8.570;2023-07-20T06:59:54;5.57;;;3.10;;
3311;SDS011;1668;49.648;8.570;2023-07-20T07:02:21;3.97;;;2.50;;
3311;SDS011;1668;49.648;8.570;2023-07-20T07:04:48;5.60;;;2.83;;
3311;SDS011;1668;49.648;8.570;2023-07-20T07:07:15;5.93;;;2.60;;
3311;SDS011;1668;49.648;8.570;2023-07-20T07:09:42;6.13;;;2.37;;
3311;SDS011;1668;49.648;8.570;2023-07-20T07:12:09;4.90;;;2.90;;
3311;SDS011;1668;49.648;8.570;2023-07-20T07:14:36;6.50;;;3.03;;
3311;SDS011;1668;49.648;8.570;2023-07-20T07:17:04;6.87;;;2.80;;
3311;SDS011;1668;49.648;8.570;2023-07-20T07:19:32;7.50;;;2.30;;
3311;SDS011;1668;49.648;8.570;2023-07-20T07:21:59;5.30;;;2.80;;
3311;SDS011;1668;49.648;8.570;2023-07-20T07:24:25;5.33;;;2.53;;
3311;SDS011;1668;49.648;8.570;2023-07-20T07:26:53;5.60;;;2.53;;
3311;SDS011;1668;49.648;8.570;2023-07-20T07:29:19;5.17;;;2.80;;
3311;SDS011;1668;49.648;8.570;2023-07-20T07:31:46;6.87;;;2.40;;
3311;SDS011;1668;49.648;8.570;2023-07-20T07:34:15;6.37;;;2.40;;
3311;SDS011;1668;49.648;8.570;2023-07-20T07:36:43;4.77;;;3.17;;
3311;SDS011;1668;49.648;8.570;2023-07-20T07:39:10;7.07;;;2.30;;
3311;SDS011;1668;49.648;8.570;2023-07-20T07:41:37;5.60;;;2.60;;
3311;SDS011;1668;49.648;8.570;2023-07-20T07:44:04;6.03;;;2.57;;
3311;SDS011;1668;49.648;8.570;2023-07-20T07:46:31;4.80;;;2.50;;
3311;SDS011;1668;49.648;8.570;2023-07-20T07:48:58;7.30;;;2.77;;
3311;SDS011;1668;49.648;8.570;2023-07-20T07:51:26;6.23;;;2.30;;
3311;SDS011;1668;49.648;8.570;2023-07-20T07:53:53;6.60;;;2.90;;
3311;SDS011;1668;49.648;8.570;2023-07-20T07:56:20;5.90;;;2.23;;
3311;SDS011;1668;49.648;8.570;2023-07-20T07:58:47;4.93;;;2.53;;
3311;SDS011;1668;49.648;8.570;2023-07-20T08:01:14;4.10;;;2.43;;
3311;SDS011;1668;49.648;8.570;2023-07-20T08:03:42;2.83;;;2.00;;
3311;SDS011;1668;49.648;8.570;2023-07-20T08:06:12;5.00;;;2.40;;
3311;SDS011;1668;49.648;8.570;2023-07-20T08:08:40;4.67;;;2.53;;
3311;SDS011;1668;49.648;8.570;2023-07-20T08:11:07;4.60;;;2.47;;
3311;SDS011;1668;49.648;8.570;2023-07-20T08:13:34;4.37;;;2.43;;
3311;SDS011;1668;49.648;8.570;2023-07-20T08:16:02;5.33;;;2.17;;
3311;SDS011;1668;49.648;8.570;2023-07-20T08:18:29;6.83;;;2.60;;
3311;SDS011;1668;49.648;8.570;2023-07-20T08:20:56;5.83;;;2.57;;
3311;SDS011;1668;49.648;8.570;2023-07-20T08:23:23;5.30;;;2.40;;
3311;SDS011;1668;49.648;8.570;2023-07-20T08:25:51;4.00;;;2.30;;
3311;SDS011;1668;49.648;8.570;2023-07-20T08:28:18;6.53;;;2.67;;
3311;SDS011;1668;49.648;8.570;2023-07-20T08:30:45;6.23;;;2.03;;
3311;SDS011;1668;49.648;8.570;2023-07-20T08:33:13;4.40;;;1.87;;
3311;SDS011;1668;49.648;8.570;2023-07-20T08:35:40;4.57;;;2.30;;
3311;SDS011;1668;49.648;8.570;2023-07-20T08:38:07;4.33;;;2.37;;
3311;SDS011;1668;49.648;8.570;2023-07-20T08:40:39;3.43;;;2.00;;
3311;SDS011;1668;49.648;8.570;2023-07-20T08:43:08;5.10;;;2.70;;
3311;SDS011;1668;49.648;8.570;2023-07-20T08:45:36;6.23;;;2.30;;
3311;SDS011;1668;49.648;8.570;2023-07-20T08:48:05;5.00;;;2.57;;
3311;SDS011;1668;49.648;8.570;2023-07-20T08:50:33;5.97;;;2.10;;
3311;SDS011;1668;49.648;8.570;2023-07-20T08:53:01;4.33;;;2.10;;
3311;SDS011;1668;49.648;8.570;2023-07-20T08:55:29;3.80;;;2.30;;
3311;SDS011;1668;49.648;8.570;2023-07-20T08:57:57;6.10;;;2.00;;
3311;SDS011;1668;49.648;8.570;2023-07-20T09:00:26;3.30;;;2.10;;
3311;SDS011;1668;49.648;8.570;2023-07-20T09:02:54;3.80;;;2.50;;
3311;SDS011;1668;49.648;8.570;2023-07-20T09:05:22;3.60;;;2.40;;
3311;SDS011;1668;49.648;8.570;2023-07-20T09:07:50;4.70;;;1.93;;
3311;SDS011;1668;49.648;8.570;2023-07-20T09:10:18;5.10;;;1.87;;
3311;SDS011;1668;49.648;8.570;2023-07-20T09:12:47;4.27;;;2.27;;
3311;SDS011;1668;49.648;8.570;2023-07-20T09:15:14;2.77;;;1.87;;
3311;SDS011;1668;49.648;8.570;2023-07-20T09:17:46;4.20;;;1.67;;
3311;SDS011;1668;49.648;8.570;2023-07-20T09:20:14;5.00;;;2.07;;
3311;SDS011;1668;49.648;8.570;2023-07-20T09:22:43;2.23;;;1.60;;
3311;SDS011;1668;49.648;8.570;2023-07-20T09:25:11;3.30;;;1.80;;
3311;SDS011;1668;49.648;8.570;2023-07-20T09:27:40;3.73;;;1.67;;
3311;SDS011;1668;49.648;8.570;2023-07-20T09:30:09;2.20;;;1.83;;
3311;SDS011;1668;49.648;8.570;2023-07-20T09:32:39;5.57;;;1.77;;
3311;SDS011;1668;49.648;8.570;2023-07-20T09:35:13;2.23;;;1.70;;
3311;SDS011;1668;49.648;8.570;2023-07-20T09:37:45;3.80;;;1.90;;
3311;SDS011;1668;49.648;8.570;2023-07-20T09:40:14;2.20;;;1.73;;
3311;SDS011;1668;49.648;8.570;2023-07-20T09:42:43;3.93;;;1.60;;
3311;SDS011;1668;49.648;8.570;2023-07-20T09:45:10;4.40;;;1.93;;
3311;SDS011;1668;49.648;8.570;2023-07-20T09:47:37;5.43;;;2.00;;
3311;SDS011;1668;49.648;8.570;2023-07-20T09:50:05;4.90;;;2.07;;
3311;SDS011;1668;49.648;8.570;2023-07-20T09:52:37;2.60;;;1.70;;
3311;SDS011;1668;49.648;8.570;2023-07-20T09:55:05;3.50;;;1.90;;
3311;SDS011;1668;49.648;8.570;2023-07-20T09:57:33;4.90;;;2.13;;
3311;SDS011;1668;49.648;8.570;2023-07-20T10:00:04;3.70;;;2.10;;
3311;SDS011;1668;49.648;8.570;2023-07-20T10:02:40;3.80;;;1.80;;
3311;SDS011;1668;49.648;8.570;2023-07-20T10:05:09;3.03;;;1.90;;
3311;SDS011;1668;49.648;8.570;2023-07-20T10:07:40;3.63;;;2.10;;
3311;SDS011;1668;49.648;8.570;2023-07-20T10:10:09;2.93;;;1.90;;
3311;SDS011;1668;49.648;8.570;2023-07-20T10:12:37;3.77;;;1.97;;
3311;SDS011;1668;49.648;8.570;2023-07-20T10:15:10;6.20;;;1.93;;
3311;SDS011;1668;49.648;8.570;2023-07-20T10:17:42;3.97;;;2.00;;
3311;SDS011;1668;49.648;8.570;2023-07-20T10:20:15;5.43;;;1.83;;
3311;SDS011;1668;49.648;8.570;2023-07-20T10:22:46;3.30;;;2.13;;
3311;SDS011;1668;49.648;8.570;2023-07-20T10:25:15;3.87;;;1.67;;
3311;SDS011;1668;49.648;8.570;2023-07-20T10:27:44;3.50;;;2.00;;
3311;SDS011;1668;49.648;8.570;2023-07-20T10:30:11;4.10;;;1.60;;
3311;SDS011;1668;49.648;8.570;2023-07-20T10:32:39;2.80;;;1.60;;
3311;SDS011;1668;49.648;8.570;2023-07-20T10:35:12;4.03;;;2.00;;
3311;SDS011;1668;49.648;8.570;2023-07-20T10:37:48;3.10;;;1.47;;
3311;SDS011;1668;49.648;8.570;2023-07-20T10:40:29;2.40;;;1.70;;
3311;SDS011;1668;49.648;8.570;2023-07-20T10:42:58;2.90;;;1.83;;
3311;SDS011;1668;49.648;8.570;2023-07-20T10:45:39;4.43;;;1.80;;
3311;SDS011;1668;49.648;8.570;2023-07-20T10:48:14;5.83;;;1.70;;
3311;SDS011;1668;49.648;8.570;2023-07-20T10:50:44;3.87;;;2.00;;
3311;SDS011;1668;49.648;8.570;2023-07-20T10:53:14;3.03;;;2.00;;
3311;SDS011;1668;49.648;8.570;2023-07-20T10:55:42;4.20;;;1.77;;
3311;SDS011;1668;49.648;8.570;2023-07-20T10:58:12;3.07;;;1.70;;
3311;SDS011;1668;49.648;8.570;2023-07-20T11:01:00;5.40;;;1.60;;
3311;SDS011;1668;49.648;8.570;2023-07-20T11:03:28;4.17;;;1.90;;
3311;SDS011;1668;49.648;8.570;2023-07-20T11:05:56;2.70;;;1.40;;
3311;SDS011;1668;49.648;8.570;2023-07-20T11:08:41;4.20;;;1.60;;
3311;SDS011;1668;49.648;8.570;2023-07-20T11:11:21;4.30;;;1.70;;
3311;SDS011;1668;49.648;8.570;2023-07-20T11:13:55;3.30;;;1.83;;
3311;SDS011;1668;49.648;8.570;2023-07-20T11:16:39;2.40;;;1.40;;
3311;SDS011;1668;49.648;8.570;2023-07-20T11:19:13;5.40;;;1.60;;
3311;SDS011;1668;49.648;8.570;2023-07-20T11:21:44;2.10;;;1.50;;
3311;SDS011;1668;49.648;8.570;2023-07-20T11:24:13;4.53;;;1.57;;
3311;SDS011;1668;49.648;8.570;2023-07-20T11:26:41;6.77;;;1.70;;
3311;SDS011;1668;49.648;8.570;2023-07-20T11:29:09;3.40;;;1.50;;
3311;SDS011;1668;49.648;8.570;2023-07-20T11:31:37;2.90;;;1.63;;
3311;SDS011;1668;49.648;8.570;2023-07-20T11:34:04;2.67;;;1.70;;
3311;SDS011;1668;49.648;8.570;2023-07-20T11:36:31;4.80;;;2.17;;
3311;SDS011;1668;49.648;8.570;2023-07-20T11:38:59;3.27;;;1.70;;
3311;SDS011;1668;49.648;8.570;2023-07-20T11:41:28;3.30;;;1.70;;
3311;SDS011;1668;49.648;8.570;2023-07-20T11:43:54;2.87;;;1.40;;
3311;SDS011;1668;49.648;8.570;2023-07-20T11:46:21;5.27;;;1.40;;
3311;SDS011;1668;49.648;8.570;2023-07-20T11:48:48;5.20;;;2.00;;
3311;SDS011;1668;49.648;8.570;2023-07-20T11:51:21;2.90;;;1.47;;
3311;SDS011;1668;49.648;8.570;2023-07-20T11:53:49;1.80;;;1.50;;
3311;SDS011;1668;49.648;8.570;2023-07-20T11:56:16;2.00;;;1.50;;
3311;SDS011;1668;49.648;8.570;2023-07-20T11:58:44;2.10;;;1.17;;
3311;SDS011;1668;49.648;8.570;2023-07-20T12:01:12;3.30;;;1.40;;
3311;SDS011;1668;49.648;8.570;2023-07-20T12:03:39;2.37;;;1.63;;
3311;SDS011;1668;49.648;8.570;2023-07-20T12:06:08;2.70;;;1.50;;
3311;SDS011;1668;49.648;8.570;2023-07-20T12:08:38;3.53;;;1.63;;
3311;SDS011;1668;49.648;8.570;2023-07-20T12:11:06;2.43;;;1.53;;
3311;SDS011;1668;49.648;8.570;2023-07-20T12:13:36;2.20;;;1.40;;
3311;SDS011;1668;49.648;8.570;2023-07-20T12:16:12;1.40;;;1.20;;
3311;SDS011;1668;49.648;8.570;2023-07-20T12:18:40;1.80;;;1.40;;
3311;SDS011;1668;49.648;8.570;2023-07-20T12:21:08;2.03;;;1.30;;
3311;SDS011;1668;49.648;8.570;2023-07-20T12:23:35;2.47;;;1.30;;
3311;SDS011;1668;49.648;8.570;2023-07-20T12:26:03;1.80;;;1.40;;
3311;SDS011;1668;49.648;8.570;2023-07-20T12:28:33;1.53;;;1.37;;
3311;SDS011;1668;49.648;8.570;2023-07-20T12:31:01;4.13;;;1.70;;
3311;SDS011;1668;49.648;8.570;2023-07-20T12:33:30;3.53;;;1.70;;
3311;SDS011;1668;49.648;8.570;2023-07-20T12:35:57;1.97;;;1.47;;
3311;SDS011;1668;49.648;8.570;2023-07-20T12:38:24;2.27;;;1.50;;
3311;SDS011;1668;49.648;8.570;2023-07-20T12:40:52;2.63;;;1.43;;
3311;SDS011;1668;49.648;8.570;2023-07-20T12:43:20;2.57;;;1.50;;
3311;SDS011;1668;49.648;8.570;2023-07-20T12:45:46;2.40;;;1.70;;
3311;SDS011;1668;49.648;8.570;2023-07-20T12:48:13;2.27;;;1.40;;
3311;SDS011;1668;49.648;8.570;2023-07-20T12:50:42;2.27;;;1.50;;
3311;SDS011;1668;49.648;8.570;2023-07-20T12:53:08;4.00;;;1.87;;
3311;SDS011;1668;49.648;8.570;2023-07-20T12:55:37;1.70;;;1.27;;
3311;SDS011;1668;49.648;8.570;2023-07-20T12:58:03;3.27;;;1.87;;
3311;SDS011;1668;49.648;8.570;2023-07-20T13:00:30;1.80;;;1.20;;
3311;SDS011;1668;49.648;8.570;2023-07-20T13:02:58;3.70;;;1.50;;
3311;SDS011;1668;49.648;8.570;2023-07-20T13:05:24;3.23;;;1.60;;
3311;SDS011;1668;49.648;8.570;2023-07-20T13:07:53;2.70;;;1.50;;
3311;SDS011;1668;49.648;8.570;2023-07-20T13:10:20;4.13;;;1.60;;
3311;SDS011;1668;49.648;8.570;2023-07-20T13:12:47;5.00;;;1.70;;
3311;SDS011;1668;49.648;8.570;2023-07-20T13:15:14;3.60;;;1.50;;
3311;SDS011;1668;49.648;8.570;2023-07-20T13:17:40;2.93;;;1.80;;
3311;SDS011;1668;49.648;8.570;2023-07-20T13:20:08;2.90;;;1.50;;
3311;SDS011;1668;49.648;8.570;2023-07-20T13:22:36;2.57;;;1.53;;
3311;SDS011;1668;49.648;8.570;2023-07-20T13:25:05;1.90;;;1.33;;
3311;SDS011;1668;49.648;8.570;2023-07-20T13:27:33;5.53;;;1.63;;
3311;SDS011;1668;49.648;8.570;2023-07-20T13:30:00;2.37;;;1.43;;
3311;SDS011;1668;49.648;8.570;2023-07-20T13:32:31;3.57;;;1.97;;
3311;SDS011;1668;49.648;8.570;2023-07-20T13:34:58;2.60;;;1.60;;
3311;SDS011;1668;49.648;8.570;2023-07-20T13:37:25;3.77;;;1.83;;
3311;SDS011;1668;49.648;8.570;2023-07-20T13:39:53;2.97;;;1.30;;
3311;SDS011;1668;49.648;8.570;2023-07-20T13:42:21;4.10;;;1.47;;
3311;SDS011;1668;49.648;8.570;2023-07-20T13:44:48;2.40;;;1.60;;
3311;SDS011;1668;49.648;8.570;2023-07-20T13:47:15;2.10;;;1.37;;
3311;SDS011;1668;49.648;8.570;2023-07-20T13:49:42;3.37;;;1.53;;
3311;SDS011;1668;49.648;8.570;2023-07-20T13:52:09;2.13;;;1.10;;
3311;SDS011;1668;49.648;8.570;2023-07-20T13:54:36;3.90;;;1.50;;
3311;SDS011;1668;49.648;8.570;2023-07-20T13:57:03;2.67;;;1.43;;
3311;SDS011;1668;49.648;8.570;2023-07-20T13:59:32;1.90;;;1.40;;
3311;SDS011;1668;49.648;8.570;2023-07-20T14:01:59;4.20;;;1.50;;
3311;SDS011;1668;49.648;8.570;2023-07-20T14:04:26;2.20;;;1.40;;
3311;SDS011;1668;49.648;8.570;2023-07-20T14:06:54;4.23;;;1.70;;
3311;SDS011;1668;49.648;8.570;2023-07-20T14:09:21;2.10;;;1.50;;
3311;SDS011;1668;49.648;8.570;2023-07-20T14:11:48;3.87;;;1.40;;
3311;SDS011;1668;49.648;8.570;2023-07-20T14:14:14;3.93;;;1.50;;
3311;SDS011;1668;49.648;8.570;2023-07-20T14:16:43;2.20;;;1.47;;
3311;SDS011;1668;49.648;8.570;2023-07-20T14:19:09;3.17;;;1.93;;
3311;SDS011;1668;49.648;8.570;2023-07-20T14:21:37;3.87;;;2.10;;
3311;SDS011;1668;49.648;8.570;2023-07-20T14:24:04;2.80;;;1.57;;
3311;SDS011;1668;49.648;8.570;2023-07-20T14:26:31;3.10;;;1.60;;
3311;SDS011;1668;49.648;8.570;2023-07-20T14:28:58;3.03;;;1.33;;
3311;SDS011;1668;49.648;8.570;2023-07-20T14:31:26;4.43;;;2.00;;
3311;SDS011;1668;49.648;8.570;2023-07-20T14:33:54;1.83;;;1.27;;
3311;SDS011;1668;49.648;8.570;2023-07-20T14:36:21;3.50;;;1.77;;
3311;SDS011;1668;49.648;8.570;2023-07-20T14:38:48;5.30;;;1.80;;
3311;SDS011;1668;49.648;8.570;2023-07-20T14:41:15;2.80;;;1.40;;
3311;SDS011;1668;49.648;8.570;2023-07-20T14:43:42;3.40;;;1.57;;
3311;SDS011;1668;49.648;8.570;2023-07-20T14:46:09;2.60;;;1.80;;
3311;SDS011;1668;49.648;8.570;2023-07-20T14:48:36;3.20;;;1.90;;
3311;SDS011;1668;49.648;8.570;2023-07-20T14:51:04;3.57;;;1.57;;
3311;SDS011;1668;49.648;8.570;2023-07-20T14:53:31;2.30;;;1.33;;
3311;SDS011;1668;49.648;8.570;2023-07-20T14:55:59;3.50;;;1.50;;
3311;SDS011;1668;49.648;8.570;2023-07-20T14:58:26;4.03;;;1.77;;
3311;SDS011;1668;49.648;8.570;2023-07-20T15:00:53;4.77;;;1.93;;
3311;SDS011;1668;49.648;8.570;2023-07-20T15:03:20;3.13;;;1.70;;
3311;SDS011;1668;49.648;8.570;2023-07-20T15:05:47;3.00;;;1.63;;
3311;SDS011;1668;49.648;8.570;2023-07-20T15:08:17;3.70;;;1.40;;
3311;SDS011;1668;49.648;8.570;2023-07-20T15:10:45;3.60;;;1.57;;
3311;SDS011;1668;49.648;8.570;2023-07-20T15:13:12;1.73;;;1.40;;
3311;SDS011;1668;49.648;8.570;2023-07-20T15:15:39;2.37;;;1.40;;
3311;SDS011;1668;49.648;8.570;2023-07-20T15:18:06;2.37;;;1.43;;
3311;SDS011;1668;49.648;8.570;2023-07-20T15:20:33;4.27;;;1.60;;